Rancho Mirage, California
Current Conditions -  °F | °C
As of 4:53 PM on Wednesday 22 Oct 2014 (Local Time) from KPSP Reporting Station
Scattered Clouds Scattered Clouds  
Wind Chill: 93°   Ceiling: Unl
Heat Index: 93°   Visibility: 10mi
Dew Point: 28°   Wind: 5mph
Humidity: 10%   Direction: 100°E
Pressure: 29.88"   Gusts: NA
Location:  33.77°N, 116.44°W
Report Text: KPSP 222353Z 10004KT 10SM SCT200 34/M02 A2988 RMK AO2 SLP114 T03391022 10350 20306 56004
Loading
Personal Weather Stations






























Interactive Weather Map New forecast layout! Learn more

10-Day Weather Forecast

Advertisements
Track Severe Weather on mobile